WESTPORT MEDIA Westport In The Media

Enter your "Place, State", US Zip Code or ICAO:  

Cozumel Civ / Mil, Mexico

 Lat: 20.53N, Lon: 86.93W
ICAO Used: MMCZ
Current Conditions
Updated: 3:42 PM GMT-6 SUN DEC 21 2014
Sun & Moon Information
Partly Cloudy
Partly Cloudy
Temp: 25°C
Humidity: 88%
Wind Speed: SSE 5 MPH
Barometer: 1013 mb
Dewpoint: 23°C
Heat Index: 26°C
Wind Chill: 25°C
Civil Twilight: 5:54 AM GMT-6 Moon Phase:
Waxing Crescent Moon
Sunrise: 6:18 AM GMT-6
Sunset: 5:11 PM GMT-6
Civil Twilight: 5:35 PM GMT-6
Forecast for Cozumel Civ / Mil, Mexico:
(Forecast based on TAF for )
0600 PM GMT-6 SAT DEC 20 2014
  
OVERNIGHT MORNING AFTERNOON EVENING OVERNIGHT
Mostly
Cloudy
Mostly
Cloudy
Mostly
Cloudy
Mostly
Cloudy
Mostly
Cloudy
ZoneCast:
Dated: 0600 PM GMT-6 SAT DEC 20 2014
Overnight...Turning mostly cloudy with winds from the northeast at 12 mph.

Morning...Mostly cloudy with winds from the northeast at 12 mph.

Afternoon...Mostly cloudy with winds from the southeast at 12 mph.

Evening...Mostly cloudy with winds from the southeast at 12 mph.

Overnight...Mostly cloudy with winds from the southeast at 12 mph.

Original Encoded TAF:
Dated: 0600 PM GMT-6 SAT DEC 20 2014
TAF MMCZ 211704Z 2118/2224 12010KT P6SM SCT020 BKN250 
     TEMPO 2120/2124 BKN020 VC CB 
     FM220300 04010KT P6SM SCT015 BKN250 
     FM221500 12010KT P6SM SCT020 BKN250